Valle Toledo, Valles Caldera, New Mexico Weather observations

Data are for 10 minute period ending at time listed.
 Day   Time   Solar   Ave.   Ave.  Ave.  Vector  Max.   Baro.   Total    
  of    of     Rad.   Air    Rel.  Wind   Wind   Wind  Press.  Precip.   
Year   Day            Temp.  Hum.  Speed  Dir.   Gust                    
2016   (MST)  Kw/m2    F      %     mph   deg.    mph    mb.     in.     
-------------------------------------------------------------------------
 269    5:30   0.00   34.8    64    0.1    28     3.0   736.3    0.00 
 269    5:40   0.00   34.4    65    0.9   320     5.4   736.4    0.00 
 269    5:50   0.00   34.5    65    0.3    41     3.6   736.5    0.00 
 269    6:00   0.00   35.1    64    0.0    72     1.2   736.6    0.00 
 269    6:10   0.01   35.0    64    0.2    27     3.0   736.7    0.00 
 269    6:20   0.01   34.1    66    0.1   346     2.4   736.8    0.00 
 269    6:30   0.01   34.7    64    0.0     0     0.0   736.9    0.00 
 269    6:40   0.01   34.5    66    0.0   122     1.2   737.0    0.00 
 269    6:50   0.02   34.2    66    2.1   107     7.2   737.2    0.00 
 269    7:00   0.02   34.5    65    1.6   360     4.8   737.3    0.00 
 269    7:10   0.05   37.1    60    0.2    33     2.4   737.2    0.00 
 269    7:20   0.09   39.1    57    0.0    96     1.8   737.2    0.00 
 269    7:30   0.23   40.4    55    2.4   134     4.8   737.3    0.00 
 269    7:40   0.29   42.7    52    0.6   245     3.6   737.4    0.00 
 269    7:50   0.32   45.7    46    0.1   234     2.4   737.6    0.00 
 269    8:00   0.34   46.8    45    0.1   228     3.0   737.5    0.00 
 269    8:10   0.39   46.7    45    1.3   227     4.2   737.5    0.00 
 269    8:20   0.43   47.8    43    2.4   227     6.6   737.6    0.00 
 269    8:30   0.46   49.6    40    4.0   136    13.7   737.7    0.00 
 269    8:40   0.49   51.2    38    0.8   172     4.8   737.9    0.00 
 269    8:50   0.52   52.3    37    2.3   129     4.8   738.2    0.00 
 269    9:00   0.55   53.9    33    2.5    58     7.8   738.4    0.00 
 269    9:10   0.58   53.7    33    2.8    80    10.2   738.4    0.00 
 269    9:20   0.62   53.9    33    3.9   167     9.6   738.5    0.00 
 269    9:30   0.63   54.2    34    3.7   152     9.6   738.6    0.00 
 269    9:40   0.65   55.9    32    2.1   144     6.6   738.8    0.00 
 269    9:50   0.67   56.1    33    3.2   225     8.4   738.8    0.00 
 269   10:00   0.70   56.7    30    4.0    73    10.2   738.7    0.00 
 269   10:10   0.72   55.2    30    4.7   124    10.2   738.6    0.00 
 269   10:20   0.74   56.3    30    4.1   112    10.8   738.7    0.00 
 269   10:30   0.75   55.6    32    7.0   121    12.5   738.7    0.00 
 269   10:40   0.77   56.0    32    5.8   162    12.5   738.7    0.00 
 269   10:50   0.78   56.2    32    5.9   157    10.8   738.6    0.00 
 269   11:00   0.79   56.7    32    7.2   142    11.9   738.6    0.00 
 269   11:10   0.80   56.6    32    5.8   151    13.1   738.6    0.00 
 269   11:20   0.81   56.6    32    7.6   144    13.1   738.6    0.00 
 269   11:30   0.82   56.6    33    8.4   155    14.3   738.5    0.00 
 269   11:40   0.83   56.8    34    8.4   145    17.3   738.5    0.00 
 269   11:50   0.83   56.6    33    8.6   146    14.3   738.5    0.00 
 269   12:00   0.83   56.8    34    8.5   146    14.3   738.5    0.00 
 269   12:10   0.83   56.7    34    7.6   144    14.3   738.5    0.00 
 269   12:20   0.83   57.0    33    8.7   150    14.9   738.3    0.00 
 269   12:30   0.82   57.2    33    8.8   141    17.9   738.4    0.00 
 269   12:40   0.83   57.1    33    8.5   167    19.7   738.3    0.00 
 269   12:50   0.83   58.2    32    7.1   167    13.7   738.3    0.00 
 269   13:00   0.82   58.9    32    7.8   164    14.9   738.2    0.00 
 269   13:10   0.81   58.4    32    7.7   180    13.1   738.2    0.00 
 269   13:20   0.57   57.5    32    7.0   172    11.3   738.3    0.00 
 269   13:30   0.66   57.5    33    6.9   178    13.1   738.4    0.00 
 269   13:40   0.82   59.1    31    7.0   200    13.1   738.3    0.00 
 269   13:50   0.66   58.8    30    6.9   181    11.3   738.2    0.00 
 269   14:00   0.67   58.5    30    7.0   158    14.3   738.2    0.00 
 269   14:10   0.59   58.2    30    5.4   174    10.2   738.4    0.00 
 269   14:20   0.76   59.5    29    4.5   198     9.0   738.5    0.00 
 269   14:30   0.79   60.2    29    5.1   183     8.4   738.5    0.00 
 269   14:40   0.61   59.5    29    8.2   154    14.9   738.4    0.00 
 269   14:50   0.42   58.2    30    6.7   134    14.3   738.5    0.00 
 269   15:00   0.23   56.5    31    3.7   147     7.2   738.6    0.00 
 269   15:10   0.27   56.2    32    5.7   129     9.6   738.6    0.00 
 269   15:20   0.34   56.5    32    5.8   137    10.8   738.6    0.00 
 269   15:30   0.37   56.9    31    5.8   135    10.8   738.6    0.00 
 269   15:40   0.25   56.6    31    4.7   165     7.8   738.7    0.00 
 269   15:50   0.21   56.0    32    3.3   145     6.6   738.7    0.00 
 269   16:00   0.21   56.7    33    2.2   183     4.8   738.6    0.00 
 269   16:10   0.23   56.5    35    4.8   157    10.2   738.6    0.00 
 269   16:20   0.19   55.3    37    6.9   149    13.1   738.7    0.00 
 269   16:30   0.15   54.0    40    7.6   139    14.9   738.8    0.00 
 269   16:40   0.14   53.3    40    6.8   146    10.8   738.9    0.00 
 269   16:50   0.18   54.0    40    5.6   144     9.0   739.0    0.00 
 269   17:00   0.14   54.1    40    5.1   150     9.0   739.0    0.00 
 269   17:10   0.10   53.5    40    5.2   152     8.4   739.0    0.00 
 269   17:20   0.06   52.2    42    4.6   142     7.8   739.1    0.00 
 269   17:30   0.06   51.8    43    4.1   141     7.2   739.1    0.00 
 269   17:40   0.04   51.1    45    2.6   137     5.4   739.0    0.00 
 269   17:50   0.02   50.9    46    1.0   142     4.2   739.0    0.00 
 269   18:00   0.01   49.6    47    2.0   119     6.6   738.9    0.00 
 269   18:10   0.01   48.9    47    2.2   109     4.8   738.9    0.00 
 269   18:20   0.00   48.2    48    3.4   109     6.6   739.1    0.00 
 269   18:30   0.00   47.8    49    3.0    60     4.2   739.0    0.00 
 269   18:40   0.00   46.8    52    3.4    60     4.8   739.0    0.00 
 269   18:50   0.00   45.6    55    3.7    58     4.8   738.9    0.00 
 269   19:00   0.00   44.8    57    3.5    48     4.8   739.0    0.00 
 269   19:10   0.00   44.3    58    4.1    51     5.4   739.1    0.00 
 269   19:20   0.00   43.6    60    4.1    44     5.4   739.2    0.00 
 269   19:30   0.00   42.9    62    4.1    40     4.8   739.4    0.00 
 269   19:40   0.00   42.6    62    3.9    45     4.8   739.6    0.00 
 269   19:50   0.00   42.6    62    4.1    47     5.4   739.6    0.00 
 269   20:00   0.00   42.5    62    3.9    60     5.4   739.7    0.00 
 269   20:10   0.00   43.9    59    4.1    75     6.6   739.8    0.00 
 269   20:20   0.00   43.7    60    3.9    56     6.6   739.9    0.00 
 269   20:30   0.00   43.9    59    4.0    82     6.6   740.0    0.00 
 269   20:40   0.00   44.2    59    4.4   103     7.2   740.0    0.00 
 269   20:50   0.00   44.2    59    4.5   100     7.8   740.0    0.00 
 269   21:00   0.00   44.2    58    4.8    98     8.4   740.0    0.00 
 269   21:10   0.00   43.9    59    4.4   100     7.2   740.0    0.00 
 269   21:20   0.00   43.4    60    4.3    86     7.8   740.0    0.00 
 269   21:30   0.00   42.7    61    3.7    85     6.6   740.0    0.00 
 269   21:40   0.00   42.2    62    3.8    84     6.0   740.0    0.00 
 269   21:50   0.00   41.3    64    3.4    57     4.8   740.0    0.00 
 269   22:00   0.00   40.8    66    3.8    74     7.2   740.1    0.00 
 269   22:10   0.00   40.9    65    4.0    70     6.0   740.1    0.00 
 269   22:20   0.00   40.6    66    3.9    59     5.4   740.1    0.00 
 269   22:30   0.00   39.8    68    3.8    57     5.4   740.2    0.00 
 269   22:40   0.00   39.7    68    4.0    59     5.4   740.2    0.00 
 269   22:50   0.00   39.5    68    4.1    57     7.2   740.3    0.00 
 269   23:00   0.00   39.4    69    3.6    52     4.8   740.3    0.00 
 269   23:10   0.00   38.8    70    2.9    50     4.8   740.5    0.00 
 269   23:20   0.00   38.3    71    4.2    48     6.0   740.5    0.00 
 269   23:30   0.00   38.2    72    3.6    49     4.8   740.5    0.00 
 269   23:40   0.00   37.6    73    3.7    39     4.8   740.5    0.00 
 269   23:50   0.00   37.1    74    3.9    38     5.4   740.5    0.00 
 270    0:00   0.00   36.8    75    4.4    37     6.0   740.5    0.00 
 270    0:10   0.00   37.0    74    4.1    29     5.4   740.6    0.00 
 270    0:20   0.00   36.5    76    4.0    33     5.4   740.7    0.00 
 270    0:30   0.00   36.2    76    4.6    36     5.4   740.7    0.00 
 270    0:40   0.00   36.1    76    4.3    34     5.4   740.7    0.00 
 270    0:50   0.00   35.8    77    4.4    35     5.4   740.8    0.00 
 270    1:00   0.00   35.8    77    4.1    37     5.4   740.8    0.00 
 270    1:10   0.00   35.9    77    4.2    37     5.4   740.7    0.00 
 270    1:20   0.00   35.9    76    4.3    46     5.4   740.7    0.00 
 270    1:30   0.00   35.5    77    4.2    38     5.4   740.7    0.00 
 270    1:40   0.00   35.2    78    4.4    44     5.4   740.7    0.00 
 270    1:50   0.00   34.9    78    4.5    35     5.4   740.7    0.00 
 270    2:00   0.00   34.8    78    4.2    36     5.4   740.6    0.00 
 270    2:10   0.00   34.8    78    4.2    34     6.0   740.6    0.00 
 270    2:20   0.00   34.6    78    4.0    34     6.0   740.6    0.00 
 270    2:30   0.00   34.8    77    4.6    35     5.4   740.5    0.00 
 270    2:40   0.00   34.3    78    4.4    39     5.4   740.4    0.00 
 270    2:50   0.00   33.8    79    3.8    48     5.4   740.5    0.00 
 270    3:00   0.00   33.4    80    2.4    56     3.6   740.5    0.00 
 270    3:10   0.00   33.1    80    2.1    23     3.6   740.5    0.00 
 270    3:20   0.00   32.7    82    2.7    38     4.2   740.6    0.00 
 270    3:30   0.00   32.6    82    2.9    21     4.2   740.6    0.00 
 270    3:40   0.00   32.4    82    3.2    37     4.8   740.5    0.00 
 270    3:50   0.00   32.6    82    3.6    41     4.2   740.5    0.00 
 270    4:00   0.00   32.9    81    2.7    46     4.2   740.6    0.00 
 270    4:10   0.00   32.7    81    1.2    39     3.0   740.7    0.00 
 270    4:20   0.00   32.1    82    3.2    30     4.8   740.8    0.00 
 270    4:30   0.00   32.1    83    3.9    37     4.8   740.7    0.00 
 270    4:40   0.00   32.2    83    4.1    38     4.8   740.6    0.00 
 270    4:50   0.00   32.3    82    3.6    42     4.2   740.5    0.00 
 270    5:00   0.00   31.9    82    1.9    64     3.6   740.6    0.00 
 270    5:10   0.00   31.5    83    1.9    27     2.4   740.6    0.00 
 270    5:20   0.00   31.4    84    3.0    43     4.2   740.7    0.00 

Return to Valle Toledo, Valles Caldera graphs page.


Western Regional Climate Center,wrcc@dri.edu